Impacts METAR Board
IDs:

KMSP - Minneapolis-St Paul, MN, US

Updated at: 2000 UTC 16 Aug 2018
Potential Impact None Slight Moderate High
Time 16/08Z 16/09Z 16/10Z 16/11Z 16/12Z 16/13Z 16/14Z 16/15Z 16/16Z 16/17Z 16/18Z 16/19Z 16/20Z
Temp71 71 70 69 69 72 76 80 83 85 88 85 78
Dewpt64 65 65 66 66 67 67 68 65 65 66 65 65
Altim29.93 29.94 29.95 29.95 29.96 29.98 29.98 29.98 29.98 29.97 29.96 29.96 29.98
VIS10 10 10 10 10 10 10 10 10 10 10 10 10
CIG-- -- -- -- -- -- -- -- -- -- -- 250 49
CoverFEWFEWFEWSCTSCTSCTFEWFEWSCTSCTSCTBKNBKN
FltCatVFRVFRVFRVFRVFRVFRVFRVFRVFRVFRVFRVFRVFR
WX------------------------VCTS
WDir302036036020103040060340210
WSpd3 3 4 3 4 4 6 4 5 7 10 12
WGst-- -- -- -- -- -- -- -- -- -- -- -- 21
Raw hourly METARs
KMSP 160753Z 03003KT 10SM FEW300 22/18 A2993 RMK AO2 SLP130 T02170178
KMSP 160853Z 02003KT 10SM FEW300 22/18 A2994 RMK AO2 SLP134 T02170183 55000
KMSP 160953Z 36004KT 10SM FEW300 21/18 A2995 RMK AO2 SLP135 T02110183
KMSP 161053Z 36003KT 10SM SCT190 21/19 A2995 RMK AO2 SLP137 T02060189
KMSP 161153Z 02004KT 10SM FEW190 SCT300 21/19 A2996 RMK AO2 SLP141 T02060189 10233 20206 53006
KMSP 161253Z 01004KT 10SM FEW160 SCT300 22/19 A2998 RMK AO2 SLP147 T02220194
KMSP 161353Z 03006KT 10SM FEW160 FEW300 24/19 A2998 RMK AO2 SLP146 T02440194
KMSP 161453Z 04004KT 10SM FEW160 FEW300 27/20 A2998 RMK AO2 SLP145 T02670200 50004
KMSP 161553Z VRB05KT 10SM FEW150 SCT300 28/18 A2998 RMK AO2 SLP145 TCU DSNT S T02830183
KMSP 161653Z 06007KT 040V100 10SM FEW150 SCT300 29/18 A2997 RMK AO2 SLP142 TCU DSNT SE-S T02940183
KMSP 161753Z 34010KT 10SM FEW043 FEW150 SCT250 31/19 A2996 RMK AO2 SLP139 TCU DSNT SE-S T03110189 10311 20211 58004
KMSP 161853Z 10SM SCT047 SCT150 BKN250 29/18 A2996 RMK AO2 LTG DSNT SE-SW SLP141 CB DSNT SE-S T02940183
KMSP 161957Z 21012G21KT 10SM VCTS BKN049CB BKN080 BKN150 26/18 A2998 RMK AO2 LTG DSNT E-S VCTS SE MOV N T02560183



Page loaded:  20:18 UTC  |   01:18 PM Pacific  |   02:18 PM Mountain  |   03:18 PM Central  |   04:18 PM Eastern

 

ADVISORIES

FORECASTS

FORECASTS

OBSERVATIONS

USER TOOLS

ABOUT US